sensor_id;sensor_type;location;lat;lon;timestamp;temperature;humidity
6948;DHT22;3513;47.664;9.162;2024-03-02T00:02:12;5.70;99.90
6948;DHT22;3513;47.664;9.162;2024-03-02T00:04:38;5.70;99.90
6948;DHT22;3513;47.664;9.162;2024-03-02T00:07:04;5.90;99.90
6948;DHT22;3513;47.664;9.162;2024-03-02T00:09:29;5.80;99.90
6948;DHT22;3513;47.664;9.162;2024-03-02T00:11:55;5.80;99.90
6948;DHT22;3513;47.664;9.162;2024-03-02T00:14:21;5.90;99.90
6948;DHT22;3513;47.664;9.162;2024-03-02T00:16:46;5.90;99.90
6948;DHT22;3513;47.664;9.162;2024-03-02T00:19:12;6.00;99.90
6948;DHT22;3513;47.664;9.162;2024-03-02T00:21:38;6.10;99.90
6948;DHT22;3513;47.664;9.162;2024-03-02T00:24:17;6.00;99.90
6948;DHT22;3513;47.664;9.162;2024-03-02T00:26:45;6.00;99.90
6948;DHT22;3513;47.664;9.162;2024-03-02T00:29:11;5.40;99.90
6948;DHT22;3513;47.664;9.162;2024-03-02T00:31:40;6.00;99.90
6948;DHT22;3513;47.664;9.162;2024-03-02T00:34:06;6.00;99.90
6948;DHT22;3513;47.664;9.162;2024-03-02T00:36:32;6.10;99.90
6948;DHT22;3513;47.664;9.162;2024-03-02T00:38:58;6.10;99.90
6948;DHT22;3513;47.664;9.162;2024-03-02T00:41:28;6.10;99.90
6948;DHT22;3513;47.664;9.162;2024-03-02T00:44:04;6.00;99.90
6948;DHT22;3513;47.664;9.162;2024-03-02T00:46:41;5.90;99.90
6948;DHT22;3513;47.664;9.162;2024-03-02T00:49:23;5.90;99.90
6948;DHT22;3513;47.664;9.162;2024-03-02T00:51:51;5.80;99.90
6948;DHT22;3513;47.664;9.162;2024-03-02T00:54:22;5.80;99.90
6948;DHT22;3513;47.664;9.162;2024-03-02T00:56:50;5.80;99.90
6948;DHT22;3513;47.664;9.162;2024-03-02T00:59:16;6.00;99.90
6948;DHT22;3513;47.664;9.162;2024-03-02T01:01:42;6.10;99.90
6948;DHT22;3513;47.664;9.162;2024-03-02T01:04:08;6.00;99.90
6948;DHT22;3513;47.664;9.162;2024-03-02T01:06:35;6.10;99.90
6948;DHT22;3513;47.664;9.162;2024-03-02T01:11:29;5.90;99.90
6948;DHT22;3513;47.664;9.162;2024-03-02T01:13:55;5.70;99.90
6948;DHT22;3513;47.664;9.162;2024-03-02T01:16:21;5.70;99.90
6948;DHT22;3513;47.664;9.162;2024-03-02T01:18:46;5.70;99.90
6948;DHT22;3513;47.664;9.162;2024-03-02T01:21:12;5.80;99.90
6948;DHT22;3513;47.664;9.162;2024-03-02T01:23:38;5.90;99.90
6948;DHT22;3513;47.664;9.162;2024-03-02T01:26:03;5.90;99.90
6948;DHT22;3513;47.664;9.162;2024-03-02T01:28:29;5.80;99.90
6948;DHT22;3513;47.664;9.162;2024-03-02T01:30:55;5.80;99.90
6948;DHT22;3513;47.664;9.162;2024-03-02T01:33:20;5.80;99.90
6948;DHT22;3513;47.664;9.162;2024-03-02T01:35:46;5.80;99.90
6948;DHT22;3513;47.664;9.162;2024-03-02T01:38:12;5.90;99.90
6948;DHT22;3513;47.664;9.162;2024-03-02T01:40:38;5.90;99.90
6948;DHT22;3513;47.664;9.162;2024-03-02T01:43:05;6.10;99.90
6948;DHT22;3513;47.664;9.162;2024-03-02T01:45:31;6.00;99.90
6948;DHT22;3513;47.664;9.162;2024-03-02T01:47:57;5.90;99.90
6948;DHT22;3513;47.664;9.162;2024-03-02T01:50:31;5.80;99.90
6948;DHT22;3513;47.664;9.162;2024-03-02T01:52:57;5.70;99.90
6948;DHT22;3513;47.664;9.162;2024-03-02T01:55:23;5.60;99.90
6948;DHT22;3513;47.664;9.162;2024-03-02T01:57:49;5.60;99.90
6948;DHT22;3513;47.664;9.162;2024-03-02T02:00:19;5.70;99.90
6948;DHT22;3513;47.664;9.162;2024-03-02T02:02:45;5.60;99.90
6948;DHT22;3513;47.664;9.162;2024-03-02T02:05:11;5.60;99.90
6948;DHT22;3513;47.664;9.162;2024-03-02T02:07:38;5.50;99.90
6948;DHT22;3513;47.664;9.162;2024-03-02T02:10:03;5.50;99.90
6948;DHT22;3513;47.664;9.162;2024-03-02T02:12:29;5.60;99.90
6948;DHT22;3513;47.664;9.162;2024-03-02T02:14:55;5.60;99.90
6948;DHT22;3513;47.664;9.162;2024-03-02T02:17:21;5.70;99.90
6948;DHT22;3513;47.664;9.162;2024-03-02T02:19:46;5.70;99.90
6948;DHT22;3513;47.664;9.162;2024-03-02T02:22:12;5.70;99.90
6948;DHT22;3513;47.664;9.162;2024-03-02T02:24:41;5.60;99.90
6948;DHT22;3513;47.664;9.162;2024-03-02T02:27:07;5.60;99.90
6948;DHT22;3513;47.664;9.162;2024-03-02T02:29:33;5.60;99.90
6948;DHT22;3513;47.664;9.162;2024-03-02T02:31:59;5.60;99.90
6948;DHT22;3513;47.664;9.162;2024-03-02T02:34:24;5.70;99.90
6948;DHT22;3513;47.664;9.162;2024-03-02T02:36:50;5.80;99.90
6948;DHT22;3513;47.664;9.162;2024-03-02T02:39:17;5.80;99.90
6948;DHT22;3513;47.664;9.162;2024-03-02T02:41:42;5.70;99.90
6948;DHT22;3513;47.664;9.162;2024-03-02T02:44:08;5.70;99.90
6948;DHT22;3513;47.664;9.162;2024-03-02T02:46:36;5.60;99.90
6948;DHT22;3513;47.664;9.162;2024-03-02T02:49:03;5.50;99.90
6948;DHT22;3513;47.664;9.162;2024-03-02T02:51:28;5.60;99.90
6948;DHT22;3513;47.664;9.162;2024-03-02T02:53:54;5.70;99.90
6948;DHT22;3513;47.664;9.162;2024-03-02T02:56:20;5.60;99.90
6948;DHT22;3513;47.664;9.162;2024-03-02T02:58:45;5.60;99.90
6948;DHT22;3513;47.664;9.162;2024-03-02T03:01:11;5.60;99.90
6948;DHT22;3513;47.664;9.162;2024-03-02T03:03:36;5.60;99.90
6948;DHT22;3513;47.664;9.162;2024-03-02T03:06:02;5.70;99.90
6948;DHT22;3513;47.664;9.162;2024-03-02T03:08:28;5.70;99.90
6948;DHT22;3513;47.664;9.162;2024-03-02T03:10:54;5.70;99.90
6948;DHT22;3513;47.664;9.162;2024-03-02T03:13:20;5.60;99.90
6948;DHT22;3513;47.664;9.162;2024-03-02T03:15:45;5.50;99.90
6948;DHT22;3513;47.664;9.162;2024-03-02T03:18:11;5.50;99.90
6948;DHT22;3513;47.664;9.162;2024-03-02T03:20:36;5.50;99.90
6948;DHT22;3513;47.664;9.162;2024-03-02T03:23:02;5.60;99.90
6948;DHT22;3513;47.664;9.162;2024-03-02T03:25:29;5.70;99.90
6948;DHT22;3513;47.664;9.162;2024-03-02T03:27:55;5.70;99.90
6948;DHT22;3513;47.664;9.162;2024-03-02T03:30:20;5.70;99.90
6948;DHT22;3513;47.664;9.162;2024-03-02T03:32:46;5.70;99.90
6948;DHT22;3513;47.664;9.162;2024-03-02T03:35:13;5.70;99.90
6948;DHT22;3513;47.664;9.162;2024-03-02T03:37:40;5.70;99.90
6948;DHT22;3513;47.664;9.162;2024-03-02T03:40:06;5.60;99.90
6948;DHT22;3513;47.664;9.162;2024-03-02T03:42:38;5.60;99.90
6948;DHT22;3513;47.664;9.162;2024-03-02T03:45:05;5.60;99.90
6948;DHT22;3513;47.664;9.162;2024-03-02T03:47:34;5.60;99.90
6948;DHT22;3513;47.664;9.162;2024-03-02T03:49:59;5.60;99.90
6948;DHT22;3513;47.664;9.162;2024-03-02T03:52:25;5.50;99.90
6948;DHT22;3513;47.664;9.162;2024-03-02T03:54:51;5.40;99.90
6948;DHT22;3513;47.664;9.162;2024-03-02T03:57:17;5.50;99.90
6948;DHT22;3513;47.664;9.162;2024-03-02T03:59:42;5.50;99.90
6948;DHT22;3513;47.664;9.162;2024-03-02T04:02:08;5.50;99.90
6948;DHT22;3513;47.664;9.162;2024-03-02T04:04:35;5.50;99.90
6948;DHT22;3513;47.664;9.162;2024-03-02T04:07:01;5.50;99.90
6948;DHT22;3513;47.664;9.162;2024-03-02T04:09:26;5.60;99.90
6948;DHT22;3513;47.664;9.162;2024-03-02T04:11:52;5.50;99.90
6948;DHT22;3513;47.664;9.162;2024-03-02T04:14:18;5.50;99.90
6948;DHT22;3513;47.664;9.162;2024-03-02T04:16:44;5.50;99.90
6948;DHT22;3513;47.664;9.162;2024-03-02T04:19:09;5.50;99.90
6948;DHT22;3513;47.664;9.162;2024-03-02T04:21:35;5.50;99.90
6948;DHT22;3513;47.664;9.162;2024-03-02T04:24:00;5.60;99.90
6948;DHT22;3513;47.664;9.162;2024-03-02T04:26:26;5.50;99.90
6948;DHT22;3513;47.664;9.162;2024-03-02T04:28:52;5.50;99.90
6948;DHT22;3513;47.664;9.162;2024-03-02T04:31:19;5.50;99.90
6948;DHT22;3513;47.664;9.162;2024-03-02T04:33:44;5.40;99.90
6948;DHT22;3513;47.664;9.162;2024-03-02T04:36:10;5.50;99.90
6948;DHT22;3513;47.664;9.162;2024-03-02T04:38:36;5.40;99.90
6948;DHT22;3513;47.664;9.162;2024-03-02T04:41:03;5.40;99.90
6948;DHT22;3513;47.664;9.162;2024-03-02T04:43:29;5.50;99.90
6948;DHT22;3513;47.664;9.162;2024-03-02T04:45:54;5.50;99.90
6948;DHT22;3513;47.664;9.162;2024-03-02T04:48:20;5.50;99.90
6948;DHT22;3513;47.664;9.162;2024-03-02T04:50:47;5.50;99.90
6948;DHT22;3513;47.664;9.162;2024-03-02T04:53:13;5.50;99.90
6948;DHT22;3513;47.664;9.162;2024-03-02T04:55:39;5.60;99.90
6948;DHT22;3513;47.664;9.162;2024-03-02T04:58:04;5.50;99.90
6948;DHT22;3513;47.664;9.162;2024-03-02T05:00:30;5.50;99.90
6948;DHT22;3513;47.664;9.162;2024-03-02T05:02:56;5.50;99.90
6948;DHT22;3513;47.664;9.162;2024-03-02T05:05:21;5.40;99.90
6948;DHT22;3513;47.664;9.162;2024-03-02T05:07:47;5.50;99.90
6948;DHT22;3513;47.664;9.162;2024-03-02T05:10:13;5.50;99.90
6948;DHT22;3513;47.664;9.162;2024-03-02T05:12:39;5.50;99.90
6948;DHT22;3513;47.664;9.162;2024-03-02T05:15:12;5.60;99.90
6948;DHT22;3513;47.664;9.162;2024-03-02T05:17:38;5.60;99.90
6948;DHT22;3513;47.664;9.162;2024-03-02T05:20:07;5.60;99.90
6948;DHT22;3513;47.664;9.162;2024-03-02T05:22:38;5.60;99.90
6948;DHT22;3513;47.664;9.162;2024-03-02T05:25:05;6.00;99.90
6948;DHT22;3513;47.664;9.162;2024-03-02T05:27:31;5.50;99.90
6948;DHT22;3513;47.664;9.162;2024-03-02T05:29:58;5.60;99.90
6948;DHT22;3513;47.664;9.162;2024-03-02T05:32:24;5.50;99.90
6948;DHT22;3513;47.664;9.162;2024-03-02T05:34:49;5.60;99.90
6948;DHT22;3513;47.664;9.162;2024-03-02T05:37:16;5.60;99.90
6948;DHT22;3513;47.664;9.162;2024-03-02T05:39:42;5.50;99.90
6948;DHT22;3513;47.664;9.162;2024-03-02T05:42:08;5.50;99.90
6948;DHT22;3513;47.664;9.162;2024-03-02T05:44:35;5.40;99.90
6948;DHT22;3513;47.664;9.162;2024-03-02T05:47:00;5.40;99.90
6948;DHT22;3513;47.664;9.162;2024-03-02T05:49:26;5.50;99.90
6948;DHT22;3513;47.664;9.162;2024-03-02T05:51:51;5.40;99.90
6948;DHT22;3513;47.664;9.162;2024-03-02T05:54:17;5.40;99.90
6948;DHT22;3513;47.664;9.162;2024-03-02T05:56:42;5.40;99.90
6948;DHT22;3513;47.664;9.162;2024-03-02T05:59:08;5.50;99.90
6948;DHT22;3513;47.664;9.162;2024-03-02T06:01:44;5.50;99.90
6948;DHT22;3513;47.664;9.162;2024-03-02T06:04:10;5.60;99.90
6948;DHT22;3513;47.664;9.162;2024-03-02T06:06:36;5.60;99.90
6948;DHT22;3513;47.664;9.162;2024-03-02T06:09:02;5.60;99.90
6948;DHT22;3513;47.664;9.162;2024-03-02T06:11:30;5.60;99.90
6948;DHT22;3513;47.664;9.162;2024-03-02T06:13:56;5.60;99.90
6948;DHT22;3513;47.664;9.162;2024-03-02T06:16:21;5.50;99.90
6948;DHT22;3513;47.664;9.162;2024-03-02T06:18:47;5.50;99.90
6948;DHT22;3513;47.664;9.162;2024-03-02T06:21:13;5.20;99.90
6948;DHT22;3513;47.664;9.162;2024-03-02T06:23:38;5.50;99.90
6948;DHT22;3513;47.664;9.162;2024-03-02T06:26:04;5.60;99.90
6948;DHT22;3513;47.664;9.162;2024-03-02T06:28:29;5.60;99.90
6948;DHT22;3513;47.664;9.162;2024-03-02T06:30:55;5.60;99.90
6948;DHT22;3513;47.664;9.162;2024-03-02T06:33:20;5.70;99.90
6948;DHT22;3513;47.664;9.162;2024-03-02T06:35:46;5.60;99.90
6948;DHT22;3513;47.664;9.162;2024-03-02T06:38:11;5.60;99.90
6948;DHT22;3513;47.664;9.162;2024-03-02T06:40:37;5.60;99.90
6948;DHT22;3513;47.664;9.162;2024-03-02T06:43:06;5.70;99.90
6948;DHT22;3513;47.664;9.162;2024-03-02T06:45:31;5.60;99.90
6948;DHT22;3513;47.664;9.162;2024-03-02T06:47:59;5.60;99.90
6948;DHT22;3513;47.664;9.162;2024-03-02T06:50:25;5.70;99.90
6948;DHT22;3513;47.664;9.162;2024-03-02T06:52:50;5.60;99.90
6948;DHT22;3513;47.664;9.162;2024-03-02T06:55:16;5.60;99.90
6948;DHT22;3513;47.664;9.162;2024-03-02T06:57:41;5.60;99.90
6948;DHT22;3513;47.664;9.162;2024-03-02T07:00:07;5.70;99.90
6948;DHT22;3513;47.664;9.162;2024-03-02T07:02:35;5.60;99.90
6948;DHT22;3513;47.664;9.162;2024-03-02T07:05:02;5.70;99.90
6948;DHT22;3513;47.664;9.162;2024-03-02T07:07:27;5.60;99.90
6948;DHT22;3513;47.664;9.162;2024-03-02T07:09:53;5.60;99.90
6948;DHT22;3513;47.664;9.162;2024-03-02T07:12:18;5.60;99.90
6948;DHT22;3513;47.664;9.162;2024-03-02T07:14:44;5.70;99.90
6948;DHT22;3513;47.664;9.162;2024-03-02T07:17:22;5.60;99.90
6948;DHT22;3513;47.664;9.162;2024-03-02T07:19:48;5.70;99.90
6948;DHT22;3513;47.664;9.162;2024-03-02T07:22:13;5.70;99.90
6948;DHT22;3513;47.664;9.162;2024-03-02T07:24:43;5.70;99.90
6948;DHT22;3513;47.664;9.162;2024-03-02T07:27:09;5.70;99.90
6948;DHT22;3513;47.664;9.162;2024-03-02T07:29:35;5.70;99.90
6948;DHT22;3513;47.664;9.162;2024-03-02T07:32:01;5.70;99.90
6948;DHT22;3513;47.664;9.162;2024-03-02T07:34:27;5.80;99.90
6948;DHT22;3513;47.664;9.162;2024-03-02T07:36:53;5.80;99.90
6948;DHT22;3513;47.664;9.162;2024-03-02T07:39:18;5.90;99.90
6948;DHT22;3513;47.664;9.162;2024-03-02T07:41:45;5.90;99.90
6948;DHT22;3513;47.664;9.162;2024-03-02T07:44:11;6.00;99.90
6948;DHT22;3513;47.664;9.162;2024-03-02T07:46:43;6.00;99.90
6948;DHT22;3513;47.664;9.162;2024-03-02T07:49:09;6.00;99.90
6948;DHT22;3513;47.664;9.162;2024-03-02T07:51:35;6.10;99.90
6948;DHT22;3513;47.664;9.162;2024-03-02T07:54:01;6.20;99.90
6948;DHT22;3513;47.664;9.162;2024-03-02T07:56:27;6.20;99.90
6948;DHT22;3513;47.664;9.162;2024-03-02T07:58:53;6.20;99.90
6948;DHT22;3513;47.664;9.162;2024-03-02T08:01:19;6.30;99.90
6948;DHT22;3513;47.664;9.162;2024-03-02T08:03:45;6.40;99.90
6948;DHT22;3513;47.664;9.162;2024-03-02T08:06:14;6.40;99.90
6948;DHT22;3513;47.664;9.162;2024-03-02T08:08:40;6.40;99.90
6948;DHT22;3513;47.664;9.162;2024-03-02T08:11:06;6.50;99.90
6948;DHT22;3513;47.664;9.162;2024-03-02T08:13:31;6.50;99.90
6948;DHT22;3513;47.664;9.162;2024-03-02T08:15:57;6.50;99.90
6948;DHT22;3513;47.664;9.162;2024-03-02T08:18:23;6.50;99.90
6948;DHT22;3513;47.664;9.162;2024-03-02T08:20:49;6.60;99.90
6948;DHT22;3513;47.664;9.162;2024-03-02T08:23:15;6.60;99.90
6948;DHT22;3513;47.664;9.162;2024-03-02T08:25:40;6.70;99.90
6948;DHT22;3513;47.664;9.162;2024-03-02T08:28:06;6.80;99.90
6948;DHT22;3513;47.664;9.162;2024-03-02T08:30:31;6.80;99.90
6948;DHT22;3513;47.664;9.162;2024-03-02T08:32:57;6.90;99.90
6948;DHT22;3513;47.664;9.162;2024-03-02T08:35:22;6.90;99.90
6948;DHT22;3513;47.664;9.162;2024-03-02T08:37:48;6.90;99.90
6948;DHT22;3513;47.664;9.162;2024-03-02T08:40:14;6.90;99.90
6948;DHT22;3513;47.664;9.162;2024-03-02T08:42:40;7.00;99.90
6948;DHT22;3513;47.664;9.162;2024-03-02T08:45:07;7.00;99.90
6948;DHT22;3513;47.664;9.162;2024-03-02T08:47:33;7.00;99.90
6948;DHT22;3513;47.664;9.162;2024-03-02T08:49:59;7.10;99.90
6948;DHT22;3513;47.664;9.162;2024-03-02T08:52:26;7.10;99.90
6948;DHT22;3513;47.664;9.162;2024-03-02T08:54:51;7.20;99.90
6948;DHT22;3513;47.664;9.162;2024-03-02T08:57:17;7.30;99.90
6948;DHT22;3513;47.664;9.162;2024-03-02T08:59:43;7.30;99.90
6948;DHT22;3513;47.664;9.162;2024-03-02T09:02:09;7.30;99.90
6948;DHT22;3513;47.664;9.162;2024-03-02T09:04:35;7.30;99.90
6948;DHT22;3513;47.664;9.162;2024-03-02T09:07:00;7.40;99.90
6948;DHT22;3513;47.664;9.162;2024-03-02T09:09:26;7.40;99.90
6948;DHT22;3513;47.664;9.162;2024-03-02T09:11:52;7.40;99.90
6948;DHT22;3513;47.664;9.162;2024-03-02T09:14:20;7.50;99.90
6948;DHT22;3513;47.664;9.162;2024-03-02T09:16:46;7.50;99.90
6948;DHT22;3513;47.664;9.162;2024-03-02T09:19:11;7.60;99.90
6948;DHT22;3513;47.664;9.162;2024-03-02T09:21:37;7.60;99.90
6948;DHT22;3513;47.664;9.162;2024-03-02T09:24:03;7.80;99.90
6948;DHT22;3513;47.664;9.162;2024-03-02T09:26:29;7.70;99.90
6948;DHT22;3513;47.664;9.162;2024-03-02T09:28:54;7.80;99.90
6948;DHT22;3513;47.664;9.162;2024-03-02T09:31:20;7.80;99.90
6948;DHT22;3513;47.664;9.162;2024-03-02T09:33:45;7.80;99.90
6948;DHT22;3513;47.664;9.162;2024-03-02T09:36:18;7.80;99.90
6948;DHT22;3513;47.664;9.162;2024-03-02T09:38:44;7.90;99.90
6948;DHT22;3513;47.664;9.162;2024-03-02T09:41:09;7.90;99.90
6948;DHT22;3513;47.664;9.162;2024-03-02T09:43:35;8.00;99.90
6948;DHT22;3513;47.664;9.162;2024-03-02T09:46:01;8.10;99.90
6948;DHT22;3513;47.664;9.162;2024-03-02T09:48:27;8.10;99.90
6948;DHT22;3513;47.664;9.162;2024-03-02T09:50:52;8.10;99.90
6948;DHT22;3513;47.664;9.162;2024-03-02T09:53:18;8.20;99.90
6948;DHT22;3513;47.664;9.162;2024-03-02T09:55:47;8.20;99.90
6948;DHT22;3513;47.664;9.162;2024-03-02T09:58:13;8.20;99.90
6948;DHT22;3513;47.664;9.162;2024-03-02T10:00:38;8.20;99.90
6948;DHT22;3513;47.664;9.162;2024-03-02T10:03:04;8.20;99.90
6948;DHT22;3513;47.664;9.162;2024-03-02T10:05:31;8.30;99.90
6948;DHT22;3513;47.664;9.162;2024-03-02T10:08:01;8.30;99.90
6948;DHT22;3513;47.664;9.162;2024-03-02T10:10:38;8.40;99.90
6948;DHT22;3513;47.664;9.162;2024-03-02T10:13:10;8.20;99.90
6948;DHT22;3513;47.664;9.162;2024-03-02T10:15:36;8.30;99.90
6948;DHT22;3513;47.664;9.162;2024-03-02T10:18:09;8.40;99.90
6948;DHT22;3513;47.664;9.162;2024-03-02T10:20:37;8.50;99.90
6948;DHT22;3513;47.664;9.162;2024-03-02T10:23:15;8.60;99.90
6948;DHT22;3513;47.664;9.162;2024-03-02T10:25:43;8.70;99.90
6948;DHT22;3513;47.664;9.162;2024-03-02T10:28:09;8.80;99.90
6948;DHT22;3513;47.664;9.162;2024-03-02T10:30:35;9.00;99.90
6948;DHT22;3513;47.664;9.162;2024-03-02T10:33:02;9.10;99.90
6948;DHT22;3513;47.664;9.162;2024-03-02T10:35:28;9.10;99.90
6948;DHT22;3513;47.664;9.162;2024-03-02T10:37:53;9.10;99.90
6948;DHT22;3513;47.664;9.162;2024-03-02T10:40:23;9.20;99.90
6948;DHT22;3513;47.664;9.162;2024-03-02T10:42:50;9.20;99.90
6948;DHT22;3513;47.664;9.162;2024-03-02T10:45:19;9.30;99.90
6948;DHT22;3513;47.664;9.162;2024-03-02T10:47:47;9.10;99.90
6948;DHT22;3513;47.664;9.162;2024-03-02T10:50:12;8.80;99.90
6948;DHT22;3513;47.664;9.162;2024-03-02T10:52:38;8.80;99.90
6948;DHT22;3513;47.664;9.162;2024-03-02T10:55:05;8.90;99.90
6948;DHT22;3513;47.664;9.162;2024-03-02T10:57:50;9.20;99.90
6948;DHT22;3513;47.664;9.162;2024-03-02T11:00:16;9.40;99.90
6948;DHT22;3513;47.664;9.162;2024-03-02T11:02:52;9.40;99.90
6948;DHT22;3513;47.664;9.162;2024-03-02T11:05:28;9.20;99.90
6948;DHT22;3513;47.664;9.162;2024-03-02T11:08:00;9.10;99.90
6948;DHT22;3513;47.664;9.162;2024-03-02T11:10:48;9.10;99.90
6948;DHT22;3513;47.664;9.162;2024-03-02T11:13:22;9.10;99.90
6948;DHT22;3513;47.664;9.162;2024-03-02T11:15:51;9.10;99.90
6948;DHT22;3513;47.664;9.162;2024-03-02T11:18:19;9.30;99.90
6948;DHT22;3513;47.664;9.162;2024-03-02T11:20:45;9.70;99.90
6948;DHT22;3513;47.664;9.162;2024-03-02T11:23:11;9.00;99.90
6948;DHT22;3513;47.664;9.162;2024-03-02T11:25:37;9.10;99.90
6948;DHT22;3513;47.664;9.162;2024-03-02T11:28:06;9.10;99.90
6948;DHT22;3513;47.664;9.162;2024-03-02T11:33:01;9.30;99.90
6948;DHT22;3513;47.664;9.162;2024-03-02T11:35:32;9.40;99.90
6948;DHT22;3513;47.664;9.162;2024-03-02T11:37:58;9.50;99.90
6948;DHT22;3513;47.664;9.162;2024-03-02T11:40:27;9.60;99.90
6948;DHT22;3513;47.664;9.162;2024-03-02T11:42:53;9.60;99.90
6948;DHT22;3513;47.664;9.162;2024-03-02T11:45:26;9.60;99.90
6948;DHT22;3513;47.664;9.162;2024-03-02T11:47:58;9.70;99.90
6948;DHT22;3513;47.664;9.162;2024-03-02T11:50:33;9.80;99.90
6948;DHT22;3513;47.664;9.162;2024-03-02T11:53:01;9.70;99.90
6948;DHT22;3513;47.664;9.162;2024-03-02T11:55:26;9.70;99.90
6948;DHT22;3513;47.664;9.162;2024-03-02T11:57:52;9.80;99.90
6948;DHT22;3513;47.664;9.162;2024-03-02T12:00:19;9.70;99.90
6948;DHT22;3513;47.664;9.162;2024-03-02T12:05:28;9.70;99.90
6948;DHT22;3513;47.664;9.162;2024-03-02T12:07:59;9.70;99.90
6948;DHT22;3513;47.664;9.162;2024-03-02T12:10:26;9.70;99.90
6948;DHT22;3513;47.664;9.162;2024-03-02T12:12:59;9.80;99.90
6948;DHT22;3513;47.664;9.162;2024-03-02T12:15:26;9.80;99.90
6948;DHT22;3513;47.664;9.162;2024-03-02T12:17:56;9.90;99.90
6948;DHT22;3513;47.664;9.162;2024-03-02T12:20:23;9.90;99.90
6948;DHT22;3513;47.664;9.162;2024-03-02T12:22:57;10.00;99.90
6948;DHT22;3513;47.664;9.162;2024-03-02T12:25:24;10.00;99.90
6948;DHT22;3513;47.664;9.162;2024-03-02T12:27:52;10.10;99.90
6948;DHT22;3513;47.664;9.162;2024-03-02T12:30:19;10.30;99.90
6948;DHT22;3513;47.664;9.162;2024-03-02T12:32:45;10.30;99.60
6948;DHT22;3513;47.664;9.162;2024-03-02T12:35:11;10.40;99.40
6948;DHT22;3513;47.664;9.162;2024-03-02T12:37:47;10.40;99.40
6948;DHT22;3513;47.664;9.162;2024-03-02T12:40:15;10.40;99.50
6948;DHT22;3513;47.664;9.162;2024-03-02T12:42:43;10.60;99.00
6948;DHT22;3513;47.664;9.162;2024-03-02T12:45:09;10.60;98.50
6948;DHT22;3513;47.664;9.162;2024-03-02T12:47:35;10.70;98.50
6948;DHT22;3513;47.664;9.162;2024-03-02T12:50:01;10.70;98.60
6948;DHT22;3513;47.664;9.162;2024-03-02T12:52:27;10.70;98.50
6948;DHT22;3513;47.664;9.162;2024-03-02T12:54:54;10.70;98.10
6948;DHT22;3513;47.664;9.162;2024-03-02T12:57:26;10.70;97.90
6948;DHT22;3513;47.664;9.162;2024-03-02T13:00:05;10.70;97.90
6948;DHT22;3513;47.664;9.162;2024-03-02T13:02:35;10.90;97.90
6948;DHT22;3513;47.664;9.162;2024-03-02T13:05:01;11.00;97.70
6948;DHT22;3513;47.664;9.162;2024-03-02T13:07:28;11.10;96.80
6948;DHT22;3513;47.664;9.162;2024-03-02T13:09:55;11.20;96.60
6948;DHT22;3513;47.664;9.162;2024-03-02T13:12:23;11.30;96.10
6948;DHT22;3513;47.664;9.162;2024-03-02T13:14:53;11.40;96.20
6948;DHT22;3513;47.664;9.162;2024-03-02T13:17:20;11.50;96.10
6948;DHT22;3513;47.664;9.162;2024-03-02T13:19:57;11.70;96.00
6948;DHT22;3513;47.664;9.162;2024-03-02T13:22:23;11.80;95.60
6948;DHT22;3513;47.664;9.162;2024-03-02T13:24:50;12.10;94.90
6948;DHT22;3513;47.664;9.162;2024-03-02T13:27:16;12.20;94.30
6948;DHT22;3513;47.664;9.162;2024-03-02T13:29:42;12.20;93.60
6948;DHT22;3513;47.664;9.162;2024-03-02T13:32:08;12.40;94.20
6948;DHT22;3513;47.664;9.162;2024-03-02T13:34:35;12.60;93.20
6948;DHT22;3513;47.664;9.162;2024-03-02T13:37:02;12.90;92.40
6948;DHT22;3513;47.664;9.162;2024-03-02T13:39:28;13.30;91.40
6948;DHT22;3513;47.664;9.162;2024-03-02T13:41:57;13.70;90.50
6948;DHT22;3513;47.664;9.162;2024-03-02T13:44:28;14.10;86.80
6948;DHT22;3513;47.664;9.162;2024-03-02T13:46:54;14.50;84.20
6948;DHT22;3513;47.664;9.162;2024-03-02T13:49:20;14.60;81.10
6948;DHT22;3513;47.664;9.162;2024-03-02T13:51:45;14.80;80.10
6948;DHT22;3513;47.664;9.162;2024-03-02T13:54:11;15.00;78.20
6948;DHT22;3513;47.664;9.162;2024-03-02T13:56:37;15.30;78.10
6948;DHT22;3513;47.664;9.162;2024-03-02T13:59:04;15.80;73.90
6948;DHT22;3513;47.664;9.162;2024-03-02T14:01:31;16.10;71.50
6948;DHT22;3513;47.664;9.162;2024-03-02T14:03:58;16.20;71.50
6948;DHT22;3513;47.664;9.162;2024-03-02T14:06:23;16.40;68.60
6948;DHT22;3513;47.664;9.162;2024-03-02T14:08:51;16.50;68.40
6948;DHT22;3513;47.664;9.162;2024-03-02T14:11:17;16.70;67.60
6948;DHT22;3513;47.664;9.162;2024-03-02T14:13:43;16.90;66.80
6948;DHT22;3513;47.664;9.162;2024-03-02T14:16:10;17.10;66.10
6948;DHT22;3513;47.664;9.162;2024-03-02T14:18:36;17.30;65.20
6948;DHT22;3513;47.664;9.162;2024-03-02T14:21:01;17.70;65.50
6948;DHT22;3513;47.664;9.162;2024-03-02T14:23:29;17.80;63.40
6948;DHT22;3513;47.664;9.162;2024-03-02T14:25:55;17.80;63.50
6948;DHT22;3513;47.664;9.162;2024-03-02T14:28:20;17.70;62.20
6948;DHT22;3513;47.664;9.162;2024-03-02T14:30:46;17.40;63.00
6948;DHT22;3513;47.664;9.162;2024-03-02T14:33:11;17.20;63.90
6948;DHT22;3513;47.664;9.162;2024-03-02T14:35:39;17.10;64.20
6948;DHT22;3513;47.664;9.162;2024-03-02T14:38:04;17.00;64.10
6948;DHT22;3513;47.664;9.162;2024-03-02T14:40:30;16.90;64.10
6948;DHT22;3513;47.664;9.162;2024-03-02T14:42:56;16.90;64.70
6948;DHT22;3513;47.664;9.162;2024-03-02T14:45:22;17.00;63.70
6948;DHT22;3513;47.664;9.162;2024-03-02T14:47:49;17.20;64.30
6948;DHT22;3513;47.664;9.162;2024-03-02T14:50:14;17.20;62.50
6948;DHT22;3513;47.664;9.162;2024-03-02T14:52:41;17.20;63.70
6948;DHT22;3513;47.664;9.162;2024-03-02T14:55:07;17.00;62.90
6948;DHT22;3513;47.664;9.162;2024-03-02T14:57:33;16.70;63.50
6948;DHT22;3513;47.664;9.162;2024-03-02T14:59:58;16.50;64.30
6948;DHT22;3513;47.664;9.162;2024-03-02T15:02:24;16.10;63.90
6948;DHT22;3513;47.664;9.162;2024-03-02T15:04:50;15.80;66.20
6948;DHT22;3513;47.664;9.162;2024-03-02T15:07:16;15.80;67.40
6948;DHT22;3513;47.664;9.162;2024-03-02T15:09:41;15.60;67.10
6948;DHT22;3513;47.664;9.162;2024-03-02T15:12:07;15.40;67.60
6948;DHT22;3513;47.664;9.162;2024-03-02T15:14:38;15.20;68.20
6948;DHT22;3513;47.664;9.162;2024-03-02T15:17:14;14.90;69.50
6948;DHT22;3513;47.664;9.162;2024-03-02T15:19:45;14.70;70.30
6948;DHT22;3513;47.664;9.162;2024-03-02T15:22:11;14.50;72.80
6948;DHT22;3513;47.664;9.162;2024-03-02T15:24:37;14.50;72.90
6948;DHT22;3513;47.664;9.162;2024-03-02T15:27:04;14.40;71.20
6948;DHT22;3513;47.664;9.162;2024-03-02T15:29:31;14.30;71.90
6948;DHT22;3513;47.664;9.162;2024-03-02T15:31:57;14.10;72.00
6948;DHT22;3513;47.664;9.162;2024-03-02T15:34:24;13.90;73.30
6948;DHT22;3513;47.664;9.162;2024-03-02T15:36:50;13.80;74.10
6948;DHT22;3513;47.664;9.162;2024-03-02T15:39:16;13.80;75.60
6948;DHT22;3513;47.664;9.162;2024-03-02T15:41:44;13.60;76.00
6948;DHT22;3513;47.664;9.162;2024-03-02T15:44:10;13.80;75.90
6948;DHT22;3513;47.664;9.162;2024-03-02T15:46:36;13.70;75.40
6948;DHT22;3513;47.664;9.162;2024-03-02T15:49:02;13.50;75.50
6948;DHT22;3513;47.664;9.162;2024-03-02T15:51:28;13.30;76.00
6948;DHT22;3513;47.664;9.162;2024-03-02T15:53:53;13.20;76.80
6948;DHT22;3513;47.664;9.162;2024-03-02T15:56:20;13.00;77.80
6948;DHT22;3513;47.664;9.162;2024-03-02T15:58:46;13.10;80.00
6948;DHT22;3513;47.664;9.162;2024-03-02T16:01:12;13.00;79.10
6948;DHT22;3513;47.664;9.162;2024-03-02T16:03:38;12.90;79.60
6948;DHT22;3513;47.664;9.162;2024-03-02T16:06:04;12.80;79.80
6948;DHT22;3513;47.664;9.162;2024-03-02T16:08:30;12.80;81.90
6948;DHT22;3513;47.664;9.162;2024-03-02T16:10:55;12.90;82.20
6948;DHT22;3513;47.664;9.162;2024-03-02T16:13:22;13.00;82.60
6948;DHT22;3513;47.664;9.162;2024-03-02T16:15:48;12.90;84.30
6948;DHT22;3513;47.664;9.162;2024-03-02T16:18:14;12.80;85.00
6948;DHT22;3513;47.664;9.162;2024-03-02T16:20:39;12.90;86.50